PWSweather.com
Personal Weather Stations
Station Observations

YeovilGB

Lat: 50.949, Lon: -2.627

Elevation: 70

Station Type: Vantage Pro

http://www.yeovil-weather.me.uk/

High Low Average
Temperature 43.4°F6.3°C 33.6°F0.9°C 37.9°F3.3°C
Dew Point 42.6°F5.9°C 32.1°F0.1°C 34.5°F1.4°C
Winds 9.2 mph 14.8 kmh Calm Calm 4.0 mph WNW6.4 kmh WNW
Wind Gusts 21.9 mph35.2 kmh -- 8.0 mph12.9 kmh
Humidity 97% 74% 88%
Pressure 29.61 in1002.7 mb 28.91 in979.0 mb -
Precipitation 0.14 in3.6 mm - -
Hour Temp Dew Point Humidity Winds Wind Gusts Pressure Precip Precip Rate Daily Precip Total
12:00 AM 43.4°F6.3°C 42.6°F5.9°C 97% Calm Calm -- 28.91 in979.0 mb - 0.00 in0.0 mm 0.00 in0.0 mm
12:10 AM 43.3°F6.3°C 42.2°F5.7°C 96% Calm Calm -- 28.91 in979.0 mb - 0.00 in0.0 mm 0.00 in0.0 mm
12:20 AM 42.7°F5.9°C 41.6°F5.3°C 96% 2.3 mph NW3.7 kmh NW 3.5 mph5.6 kmh 28.91 in979.0 mb - 0.00 in0.0 mm 0.00 in0.0 mm
12:30 AM 42.0°F5.6°C 40.9°F4.9°C 96% 1.2 mph NW1.9 kmh NW 4.6 mph7.4 kmh 28.92 in979.3 mb - 0.00 in0.0 mm 0.00 in0.0 mm
12:40 AM 41.6°F5.3°C 40.5°F4.7°C 96% 1.2 mph NW1.9 kmh NW 6.9 mph11.1 kmh 28.92 in979.3 mb - 0.00 in0.0 mm 0.00 in0.0 mm
12:50 AM 41.1°F5.1°C 40.0°F4.4°C 96% 1.2 mph NW1.9 kmh NW 3.5 mph5.6 kmh 28.92 in979.3 mb - 0.00 in0.0 mm 0.00 in0.0 mm
01:00 AM 40.6°F4.8°C 39.6°F4.2°C 96% 1.2 mph NW1.9 kmh NW 3.5 mph5.6 kmh 28.93 in979.7 mb - 0.00 in0.0 mm 0.00 in0.0 mm
01:10 AM 40.2°F4.6°C 39.2°F4.0°C 96% 3.5 mph NW5.6 kmh NW 6.9 mph11.1 kmh 28.93 in979.7 mb - 0.00 in0.0 mm 0.00 in0.0 mm
01:20 AM 39.4°F4.1°C 38.1°F3.4°C 95% 3.5 mph N5.6 kmh N 9.2 mph14.8 kmh 28.94 in980.0 mb - 0.00 in0.0 mm 0.00 in0.0 mm
01:30 AM 37.8°F3.2°C 36.5°F2.5°C 95% 3.5 mph NNW5.6 kmh NNW 10.4 mph16.7 kmh 28.95 in980.4 mb - 0.00 in0.0 mm 0.00 in0.0 mm
01:40 AM 37.0°F2.8°C 35.7°F2.1°C 95% 3.5 mph NW5.6 kmh NW 5.8 mph9.3 kmh 28.95 in980.4 mb - 0.00 in0.0 mm 0.00 in0.0 mm
01:50 AM 36.6°F2.6°C 35.3°F1.8°C 95% 4.6 mph NW7.4 kmh NW 6.9 mph11.1 kmh 28.96 in980.7 mb - 0.01 in0.3 mm 0.01 in0.3 mm
02:00 AM 36.3°F2.4°C 35.0°F1.7°C 95% 2.3 mph NW3.7 kmh NW 3.5 mph5.6 kmh 28.96 in980.7 mb - 0.01 in0.3 mm 0.02 in0.5 mm
02:10 AM 36.1°F2.3°C 34.8°F1.6°C 95% 3.5 mph WNW5.6 kmh WNW 4.6 mph7.4 kmh 28.97 in981.0 mb - 0.00 in0.0 mm 0.02 in0.5 mm
02:20 AM 35.8°F2.1°C 34.5°F1.4°C 95% 3.5 mph NW5.6 kmh NW 5.8 mph9.3 kmh 28.98 in981.4 mb - 0.00 in0.0 mm 0.02 in0.5 mm
02:30 AM 35.4°F1.9°C 34.1°F1.2°C 95% 2.3 mph NNW3.7 kmh NNW 4.6 mph7.4 kmh 28.98 in981.4 mb - 0.01 in0.3 mm 0.02 in0.5 mm
02:40 AM 35.2°F1.8°C 33.9°F1.1°C 95% Calm Calm 3.5 mph5.6 kmh 28.99 in981.7 mb - 0.00 in0.0 mm 0.02 in0.5 mm
02:50 AM 34.8°F1.6°C 33.5°F0.8°C 95% 1.2 mph NW1.9 kmh NW 8.1 mph13.0 kmh 28.99 in981.7 mb - 0.01 in0.3 mm 0.03 in0.8 mm
03:00 AM 34.2°F1.2°C 32.9°F0.5°C 95% 5.8 mph NW9.3 kmh NW 8.1 mph13.0 kmh 29.00 in982.1 mb - 0.00 in0.0 mm 0.03 in0.8 mm
03:10 AM 33.9°F1.1°C 32.6°F0.3°C 95% 3.5 mph NW5.6 kmh NW 8.1 mph13.0 kmh 29.01 in982.4 mb - 0.00 in0.0 mm 0.03 in0.8 mm
03:20 AM 33.6°F0.9°C 32.3°F0.2°C 95% 3.5 mph NW5.6 kmh NW 6.9 mph11.1 kmh 29.01 in982.4 mb - 0.00 in0.0 mm 0.03 in0.8 mm
03:30 AM 33.7°F0.9°C 32.7°F0.4°C 96% 3.5 mph NW5.6 kmh NW 8.1 mph13.0 kmh 29.01 in982.4 mb - 0.00 in0.0 mm 0.03 in0.8 mm
03:40 AM 33.9°F1.1°C 32.9°F0.5°C 96% 2.3 mph NW3.7 kmh NW 10.4 mph16.7 kmh 29.02 in982.7 mb - 0.00 in0.0 mm 0.03 in0.8 mm
03:50 AM 34.3°F1.3°C 33.3°F0.7°C 96% 6.9 mph NW11.1 kmh NW 15.0 mph24.1 kmh 29.02 in982.7 mb - 0.00 in0.0 mm 0.03 in0.8 mm
04:00 AM 34.8°F1.6°C 33.8°F1.0°C 96% 6.9 mph NW11.1 kmh NW 12.7 mph20.4 kmh 29.02 in982.7 mb - 0.00 in0.0 mm 0.03 in0.8 mm
04:10 AM 35.2°F1.8°C 34.1°F1.2°C 96% 8.1 mph NW13.0 kmh NW 12.7 mph20.4 kmh 29.02 in982.7 mb - 0.00 in0.0 mm 0.03 in0.8 mm
04:20 AM 35.6°F2.0°C 34.6°F1.4°C 96% 5.8 mph NNW9.3 kmh NNW 11.5 mph18.5 kmh 29.03 in983.1 mb - 0.01 in0.3 mm 0.04 in1.0 mm
04:30 AM 36.0°F2.2°C 35.0°F1.7°C 96% 6.9 mph NW11.1 kmh NW 10.4 mph16.7 kmh 29.04 in983.4 mb - 0.01 in0.3 mm 0.05 in1.3 mm
04:40 AM 36.1°F2.3°C 35.1°F1.7°C 96% 4.6 mph NW7.4 kmh NW 11.5 mph18.5 kmh 29.04 in983.4 mb - 0.02 in0.5 mm 0.06 in1.5 mm
04:50 AM 36.4°F2.4°C 35.4°F1.9°C 96% 9.2 mph NW14.8 kmh NW 13.8 mph22.2 kmh 29.05 in983.7 mb - 0.02 in0.5 mm 0.07 in1.8 mm
05:00 AM 36.6°F2.6°C 35.5°F1.9°C 96% 6.9 mph NW11.1 kmh NW 15.0 mph24.1 kmh 29.06 in984.1 mb - 0.02 in0.5 mm 0.08 in2.0 mm
05:10 AM 36.7°F2.6°C 35.7°F2.1°C 96% 8.1 mph NW13.0 kmh NW 15.0 mph24.1 kmh 29.07 in984.4 mb - 0.01 in0.3 mm 0.09 in2.3 mm
05:20 AM 36.9°F2.7°C 35.6°F2.0°C 95% 6.9 mph NW11.1 kmh NW 13.8 mph22.2 kmh 29.08 in984.8 mb - 0.01 in0.3 mm 0.09 in2.3 mm
05:30 AM 37.0°F2.8°C 35.7°F2.1°C 95% 5.8 mph NW9.3 kmh NW 13.8 mph22.2 kmh 29.09 in985.1 mb - 0.01 in0.3 mm 0.10 in2.5 mm
05:40 AM 37.2°F2.9°C 35.9°F2.2°C 95% 8.1 mph NW13.0 kmh NW 11.5 mph18.5 kmh 29.09 in985.1 mb - 0.01 in0.3 mm 0.11 in2.8 mm
05:50 AM 37.2°F2.9°C 35.6°F2.0°C 94% 9.2 mph NW14.8 kmh NW 12.7 mph20.4 kmh 29.10 in985.4 mb - 0.01 in0.3 mm 0.12 in3.0 mm
06:00 AM 37.1°F2.8°C 35.5°F1.9°C 94% 5.8 mph NW9.3 kmh NW 13.8 mph22.2 kmh 29.11 in985.8 mb - 0.01 in0.3 mm 0.13 in3.3 mm
06:10 AM 37.1°F2.8°C 35.5°F1.9°C 94% 5.8 mph NNW9.3 kmh NNW 13.8 mph22.2 kmh 29.12 in986.1 mb - 0.01 in0.3 mm 0.13 in3.3 mm
06:20 AM 37.1°F2.8°C 35.3°F1.8°C 93% 6.9 mph NNW11.1 kmh NNW 11.5 mph18.5 kmh 29.13 in986.5 mb - 0.00 in0.0 mm 0.13 in3.3 mm
06:30 AM 37.2°F2.9°C 35.4°F1.9°C 93% 4.6 mph NW7.4 kmh NW 12.7 mph20.4 kmh 29.14 in986.8 mb - 0.00 in0.0 mm 0.13 in3.3 mm
06:40 AM 37.3°F2.9°C 35.2°F1.8°C 92% 8.1 mph NW13.0 kmh NW 11.5 mph18.5 kmh 29.15 in987.1 mb - 0.01 in0.3 mm 0.13 in3.3 mm
06:50 AM 37.4°F3.0°C 35.0°F1.7°C 91% 5.8 mph NW9.3 kmh NW 18.4 mph29.6 kmh 29.15 in987.1 mb - 0.00 in0.0 mm 0.13 in3.3 mm
07:00 AM 37.5°F3.1°C 35.1°F1.7°C 91% 6.9 mph NW11.1 kmh NW 11.5 mph18.5 kmh 29.16 in987.5 mb - 0.00 in0.0 mm 0.13 in3.3 mm
07:10 AM 37.5°F3.1°C 34.8°F1.6°C 90% 2.3 mph WNW3.7 kmh WNW 11.5 mph18.5 kmh 29.17 in987.8 mb - 0.00 in0.0 mm 0.13 in3.3 mm
07:20 AM 37.5°F3.1°C 34.6°F1.4°C 89% 4.6 mph NW7.4 kmh NW 8.1 mph13.0 kmh 29.18 in988.1 mb - 0.00 in0.0 mm 0.13 in3.3 mm
07:30 AM 37.5°F3.1°C 34.6°F1.4°C 89% 8.1 mph NW13.0 kmh NW 12.7 mph20.4 kmh 29.18 in988.1 mb - 0.00 in0.0 mm 0.13 in3.3 mm
07:40 AM 37.7°F3.2°C 34.4°F1.3°C 88% 2.3 mph NNW3.7 kmh NNW 11.5 mph18.5 kmh 29.20 in988.8 mb - 0.00 in0.0 mm 0.13 in3.3 mm
07:50 AM 37.7°F3.2°C 34.5°F1.4°C 88% 3.5 mph NW5.6 kmh NW 9.2 mph14.8 kmh 29.20 in988.8 mb - 0.00 in0.0 mm 0.13 in3.3 mm
08:00 AM 37.9°F3.3°C 34.6°F1.4°C 88% 6.9 mph NW11.1 kmh NW 18.4 mph29.6 kmh 29.21 in989.2 mb - 0.00 in0.0 mm 0.13 in3.3 mm
08:10 AM 38.0°F3.3°C 34.8°F1.6°C 88% 4.6 mph NW7.4 kmh NW 6.9 mph11.1 kmh 29.23 in989.8 mb - 0.00 in0.0 mm 0.13 in3.3 mm
08:20 AM 37.9°F3.3°C 34.7°F1.5°C 88% 4.6 mph NW7.4 kmh NW 6.9 mph11.1 kmh 29.23 in989.8 mb - 0.01 in0.3 mm 0.14 in3.6 mm
08:30 AM 37.6°F3.1°C 34.1°F1.2°C 87% 3.5 mph NW5.6 kmh NW 9.2 mph14.8 kmh 29.24 in990.2 mb - 0.00 in0.0 mm 0.14 in3.6 mm
08:40 AM 37.5°F3.1°C 33.4°F0.8°C 85% 6.9 mph WNW11.1 kmh WNW 11.5 mph18.5 kmh 29.25 in990.5 mb - 0.00 in0.0 mm 0.14 in3.6 mm
08:50 AM 37.5°F3.1°C 33.7°F0.9°C 86% 3.5 mph NW5.6 kmh NW 9.2 mph14.8 kmh 29.25 in990.5 mb - 0.00 in0.0 mm 0.14 in3.6 mm
09:00 AM 37.4°F3.0°C 33.6°F0.9°C 86% 5.8 mph NW9.3 kmh NW 11.5 mph18.5 kmh 29.26 in990.9 mb - 0.00 in0.0 mm 0.14 in3.6 mm
09:10 AM 37.4°F3.0°C 33.3°F0.7°C 85% 5.8 mph NW9.3 kmh NW 13.8 mph22.2 kmh 29.27 in991.2 mb - 0.00 in0.0 mm 0.14 in3.6 mm
09:20 AM 37.3°F2.9°C 32.9°F0.5°C 84% 2.3 mph NW3.7 kmh NW 3.5 mph5.6 kmh 29.28 in991.5 mb - 0.00 in0.0 mm 0.14 in3.6 mm
09:30 AM 37.2°F2.9°C 32.5°F0.3°C 83% 5.8 mph NW9.3 kmh NW 13.8 mph22.2 kmh 29.29 in991.9 mb - 0.00 in0.0 mm 0.14 in3.6 mm
09:40 AM 37.2°F2.9°C 32.2°F0.1°C 82% 4.6 mph WSW7.4 kmh WSW 8.1 mph13.0 kmh 29.30 in992.2 mb - 0.00 in0.0 mm 0.14 in3.6 mm
09:50 AM 37.1°F2.8°C 32.1°F0.1°C 82% 4.6 mph NW7.4 kmh NW 11.5 mph18.5 kmh 29.30 in992.2 mb - 0.00 in0.0 mm 0.14 in3.6 mm
10:00 AM 37.3°F2.9°C 32.3°F0.2°C 82% 5.8 mph NNW9.3 kmh NNW 13.8 mph22.2 kmh 29.31 in992.6 mb - 0.00 in0.0 mm 0.14 in3.6 mm
10:10 AM 37.7°F3.2°C 32.7°F0.4°C 82% 4.6 mph NW7.4 kmh NW 10.4 mph16.7 kmh 29.32 in992.9 mb - 0.00 in0.0 mm 0.14 in3.6 mm
10:20 AM 38.4°F3.6°C 33.4°F0.8°C 82% 3.5 mph NW5.6 kmh NW 12.7 mph20.4 kmh 29.33 in993.2 mb - 0.00 in0.0 mm 0.14 in3.6 mm
10:30 AM 38.4°F3.6°C 33.1°F0.6°C 81% 4.6 mph NW7.4 kmh NW 9.2 mph14.8 kmh 29.33 in993.2 mb - 0.00 in0.0 mm 0.14 in3.6 mm
10:40 AM 38.3°F3.5°C 33.3°F0.7°C 82% 3.5 mph NW5.6 kmh NW 11.5 mph18.5 kmh 29.34 in993.6 mb - 0.00 in0.0 mm 0.14 in3.6 mm
10:50 AM 38.3°F3.5°C 33.3°F0.7°C 82% 6.9 mph WNW11.1 kmh WNW 11.5 mph18.5 kmh 29.34 in993.6 mb - 0.00 in0.0 mm 0.14 in3.6 mm
11:00 AM 38.6°F3.7°C 33.6°F0.9°C 82% 5.8 mph NW9.3 kmh NW 11.5 mph18.5 kmh 29.34 in993.6 mb - 0.00 in0.0 mm 0.14 in3.6 mm
11:10 AM 39.1°F3.9°C 34.1°F1.2°C 82% 3.5 mph NW5.6 kmh NW 19.6 mph31.5 kmh 29.35 in993.9 mb - 0.00 in0.0 mm 0.14 in3.6 mm
11:20 AM 39.5°F4.2°C 33.8°F1.0°C 80% 6.9 mph NW11.1 kmh NW 11.5 mph18.5 kmh 29.35 in993.9 mb - 0.00 in0.0 mm 0.14 in3.6 mm
11:30 AM 39.5°F4.2°C 33.8°F1.0°C 80% 4.6 mph NW7.4 kmh NW 12.7 mph20.4 kmh 29.36 in994.2 mb - 0.00 in0.0 mm 0.14 in3.6 mm
11:40 AM 39.4°F4.1°C 33.7°F0.9°C 80% 4.6 mph NW7.4 kmh NW 18.4 mph29.6 kmh 29.36 in994.2 mb - 0.00 in0.0 mm 0.14 in3.6 mm
11:50 AM 39.7°F4.3°C 34.3°F1.3°C 81% 3.5 mph NW5.6 kmh NW 21.9 mph35.2 kmh 29.37 in994.6 mb - 0.00 in0.0 mm 0.14 in3.6 mm
12:00 PM 40.8°F4.9°C 34.8°F1.6°C 79% 3.5 mph WNW5.6 kmh WNW 11.5 mph18.5 kmh 29.37 in994.6 mb - 0.00 in0.0 mm 0.14 in3.6 mm
12:10 PM 41.6°F5.3°C 35.3°F1.8°C 78% 2.3 mph NW3.7 kmh NW 11.5 mph18.5 kmh 29.37 in994.6 mb - 0.00 in0.0 mm 0.14 in3.6 mm
12:20 PM 42.1°F5.6°C 35.4°F1.9°C 77% 8.1 mph NW13.0 kmh NW 11.5 mph18.5 kmh 29.38 in994.9 mb - 0.00 in0.0 mm 0.14 in3.6 mm
12:30 PM 42.2°F5.7°C 35.2°F1.8°C 76% 6.9 mph WNW11.1 kmh WNW 10.4 mph16.7 kmh 29.39 in995.3 mb - 0.00 in0.0 mm 0.14 in3.6 mm
12:40 PM 42.2°F5.7°C 35.2°F1.8°C 76% 8.1 mph NW13.0 kmh NW 11.5 mph18.5 kmh 29.40 in995.6 mb - 0.00 in0.0 mm 0.14 in3.6 mm
12:50 PM 42.4°F5.8°C 35.3°F1.8°C 76% 6.9 mph WNW11.1 kmh WNW 15.0 mph24.1 kmh 29.40 in995.6 mb - 0.00 in0.0 mm 0.14 in3.6 mm
01:00 PM 42.5°F5.8°C 35.1°F1.7°C 75% 3.5 mph NNW5.6 kmh NNW 5.8 mph9.3 kmh 29.41 in995.9 mb - 0.00 in0.0 mm 0.14 in3.6 mm
01:10 PM 42.6°F5.9°C 35.2°F1.8°C 75% 5.8 mph NW9.3 kmh NW 8.1 mph13.0 kmh 29.41 in995.9 mb - 0.00 in0.0 mm 0.14 in3.6 mm
01:20 PM 42.4°F5.8°C 34.7°F1.5°C 74% 4.6 mph NW7.4 kmh NW 15.0 mph24.1 kmh 29.42 in996.3 mb - 0.00 in0.0 mm 0.14 in3.6 mm
01:30 PM 41.9°F5.5°C 34.6°F1.4°C 75% 5.8 mph NW9.3 kmh NW 6.9 mph11.1 kmh 29.42 in996.3 mb - 0.00 in0.0 mm 0.14 in3.6 mm
01:50 PM 41.7°F5.4°C 34.4°F1.3°C 75% 9.2 mph NW14.8 kmh NW 12.7 mph20.4 kmh 29.43 in996.6 mb - 0.00 in0.0 mm 0.14 in3.6 mm
02:00 PM 41.4°F5.2°C 34.1°F1.2°C 75% 6.9 mph NW11.1 kmh NW 12.7 mph20.4 kmh 29.44 in997.0 mb - 0.00 in0.0 mm 0.14 in3.6 mm
02:10 PM 41.4°F5.2°C 34.1°F1.2°C 75% 4.6 mph NW7.4 kmh NW 5.8 mph9.3 kmh 29.44 in997.0 mb - 0.00 in0.0 mm 0.14 in3.6 mm
02:20 PM 41.4°F5.2°C 33.7°F0.9°C 74% 6.9 mph NW11.1 kmh NW 11.5 mph18.5 kmh 29.44 in997.0 mb - 0.00 in0.0 mm 0.14 in3.6 mm
02:30 PM 41.1°F5.1°C 33.5°F0.8°C 74% 1.2 mph NW1.9 kmh NW 3.5 mph5.6 kmh 29.44 in997.0 mb - 0.00 in0.0 mm 0.14 in3.6 mm
02:40 PM 41.1°F5.1°C 34.4°F1.3°C 77% Calm Calm 4.6 mph7.4 kmh 29.45 in997.3 mb - 0.00 in0.0 mm 0.14 in3.6 mm
02:50 PM 41.2°F5.1°C 35.8°F2.1°C 81% Calm Calm 5.8 mph9.3 kmh 29.45 in997.3 mb - 0.00 in0.0 mm 0.14 in3.6 mm
03:00 PM 41.3°F5.2°C 36.5°F2.5°C 83% 4.6 mph WNW7.4 kmh WNW 13.8 mph22.2 kmh 29.46 in997.6 mb - 0.00 in0.0 mm 0.14 in3.6 mm
03:10 PM 41.0°F5.0°C 36.2°F2.3°C 83% 3.5 mph WNW5.6 kmh WNW 6.9 mph11.1 kmh 29.46 in997.6 mb - 0.00 in0.0 mm 0.14 in3.6 mm
03:20 PM 40.7°F4.8°C 35.6°F2.0°C 82% 4.6 mph NW7.4 kmh NW 9.2 mph14.8 kmh 29.46 in997.6 mb - 0.00 in0.0 mm 0.14 in3.6 mm
03:30 PM 40.4°F4.7°C 35.3°F1.8°C 82% 4.6 mph WNW7.4 kmh WNW 12.7 mph20.4 kmh 29.47 in998.0 mb - 0.00 in0.0 mm 0.14 in3.6 mm
03:40 PM 40.1°F4.5°C 35.4°F1.9°C 83% 3.5 mph W5.6 kmh W 3.5 mph5.6 kmh 29.48 in998.3 mb - 0.00 in0.0 mm 0.14 in3.6 mm
03:50 PM 39.6°F4.2°C 34.6°F1.4°C 82% 4.6 mph W7.4 kmh W 8.1 mph13.0 kmh 29.49 in998.6 mb - 0.00 in0.0 mm 0.14 in3.6 mm
04:00 PM 39.1°F3.9°C 34.1°F1.2°C 82% 1.2 mph WNW1.9 kmh WNW 12.7 mph20.4 kmh 29.49 in998.6 mb - 0.00 in0.0 mm 0.14 in3.6 mm
04:10 PM 38.6°F3.7°C 33.6°F0.9°C 82% 4.6 mph W7.4 kmh W 10.4 mph16.7 kmh 29.49 in998.6 mb - 0.00 in0.0 mm 0.14 in3.6 mm
04:20 PM 38.4°F3.6°C 33.4°F0.8°C 82% 4.6 mph W7.4 kmh W 13.8 mph22.2 kmh 29.50 in999.0 mb - 0.00 in0.0 mm 0.14 in3.6 mm
04:30 PM 38.3°F3.5°C 33.6°F0.9°C 83% 2.3 mph W3.7 kmh W 6.9 mph11.1 kmh 29.50 in999.0 mb - 0.00 in0.0 mm 0.14 in3.6 mm
04:40 PM 38.2°F3.4°C 33.5°F0.8°C 83% 4.6 mph W7.4 kmh W 10.4 mph16.7 kmh 29.50 in999.0 mb - 0.00 in0.0 mm 0.14 in3.6 mm
04:50 PM 38.0°F3.3°C 33.6°F0.9°C 84% 1.2 mph NW1.9 kmh NW 10.4 mph16.7 kmh 29.51 in999.3 mb - 0.00 in0.0 mm 0.14 in3.6 mm
05:00 PM 37.9°F3.3°C 33.5°F0.8°C 84% 5.8 mph WNW9.3 kmh WNW 12.7 mph20.4 kmh 29.51 in999.3 mb - 0.00 in0.0 mm 0.14 in3.6 mm
05:10 PM 37.8°F3.2°C 33.7°F0.9°C 85% 6.9 mph W11.1 kmh W 9.2 mph14.8 kmh 29.52 in999.7 mb - 0.00 in0.0 mm 0.14 in3.6 mm
05:20 PM 37.6°F3.1°C 33.5°F0.8°C 85% 2.3 mph NW3.7 kmh NW 6.9 mph11.1 kmh 29.52 in999.7 mb - 0.00 in0.0 mm 0.14 in3.6 mm
05:30 PM 37.5°F3.1°C 33.7°F0.9°C 86% 3.5 mph W5.6 kmh W 9.2 mph14.8 kmh 29.53 in1000.0 mb - 0.00 in0.0 mm 0.14 in3.6 mm
05:40 PM 37.3°F2.9°C 33.8°F1.0°C 87% 4.6 mph W7.4 kmh W 6.9 mph11.1 kmh 29.53 in1000.0 mb - 0.00 in0.0 mm 0.14 in3.6 mm
05:50 PM 37.2°F2.9°C 33.7°F0.9°C 87% 2.3 mph WNW3.7 kmh WNW 4.6 mph7.4 kmh 29.54 in1000.3 mb - 0.00 in0.0 mm 0.14 in3.6 mm
06:00 PM 37.2°F2.9°C 33.7°F0.9°C 87% 2.3 mph WSW3.7 kmh WSW 3.5 mph5.6 kmh 29.54 in1000.3 mb - 0.00 in0.0 mm 0.14 in3.6 mm
06:10 PM 37.1°F2.8°C 33.9°F1.1°C 88% Calm Calm 3.5 mph5.6 kmh 29.54 in1000.3 mb - 0.00 in0.0 mm 0.14 in3.6 mm
06:20 PM 37.0°F2.8°C 33.8°F1.0°C 88% Calm Calm -- 29.55 in1000.7 mb - 0.00 in0.0 mm 0.14 in3.6 mm
06:30 PM 36.9°F2.7°C 33.7°F0.9°C 88% Calm Calm -- 29.55 in1000.7 mb - 0.00 in0.0 mm 0.14 in3.6 mm
06:40 PM 36.8°F2.7°C 33.9°F1.1°C 89% Calm Calm -- 29.55 in1000.7 mb - 0.00 in0.0 mm 0.14 in3.6 mm
06:50 PM 36.5°F2.5°C 33.6°F0.9°C 89% Calm Calm -- 29.55 in1000.7 mb - 0.00 in0.0 mm 0.14 in3.6 mm
07:00 PM 36.2°F2.3°C 33.3°F0.7°C 89% Calm Calm -- 29.56 in1001.0 mb - 0.00 in0.0 mm 0.14 in3.6 mm
07:10 PM 35.8°F2.1°C 32.9°F0.5°C 89% Calm Calm -- 29.56 in1001.0 mb - 0.00 in0.0 mm 0.14 in3.6 mm
07:20 PM 35.6°F2.0°C 33.0°F0.6°C 90% Calm Calm -- 29.56 in1001.0 mb - 0.00 in0.0 mm 0.14 in3.6 mm
07:30 PM 35.3°F1.8°C 32.7°F0.4°C 90% Calm Calm -- 29.57 in1001.4 mb - 0.00 in0.0 mm 0.14 in3.6 mm
07:40 PM 35.0°F1.7°C 32.4°F0.2°C 90% Calm Calm -- 29.57 in1001.4 mb - 0.00 in0.0 mm 0.14 in3.6 mm
07:50 PM 34.9°F1.6°C 32.5°F0.3°C 91% Calm Calm 1.2 mph1.9 kmh 29.57 in1001.4 mb - 0.00 in0.0 mm 0.14 in3.6 mm
08:00 PM 35.4°F1.9°C 33.0°F0.6°C 91% Calm Calm 1.2 mph1.9 kmh 29.57 in1001.4 mb - 0.00 in0.0 mm 0.14 in3.6 mm
08:10 PM 35.9°F2.2°C 33.5°F0.8°C 91% 1.2 mph W1.9 kmh W 3.5 mph5.6 kmh 29.57 in1001.4 mb - 0.00 in0.0 mm 0.14 in3.6 mm
08:20 PM 36.5°F2.5°C 33.6°F0.9°C 89% 2.3 mph WSW3.7 kmh WSW 8.1 mph13.0 kmh 29.57 in1001.4 mb - 0.00 in0.0 mm 0.14 in3.6 mm
08:30 PM 36.9°F2.7°C 33.7°F0.9°C 88% 1.2 mph WSW1.9 kmh WSW 9.2 mph14.8 kmh 29.57 in1001.4 mb - 0.00 in0.0 mm 0.14 in3.6 mm
08:40 PM 37.1°F2.8°C 33.9°F1.1°C 88% Calm Calm 2.3 mph3.7 kmh 29.58 in1001.7 mb - 0.00 in0.0 mm 0.14 in3.6 mm
08:50 PM 37.1°F2.8°C 33.9°F1.1°C 88% 1.2 mph SW1.9 kmh SW 8.1 mph13.0 kmh 29.58 in1001.7 mb - 0.00 in0.0 mm 0.14 in3.6 mm
09:00 PM 37.1°F2.8°C 33.9°F1.1°C 88% Calm Calm -- 29.58 in1001.7 mb - 0.00 in0.0 mm 0.14 in3.6 mm
09:10 PM 37.0°F2.8°C 34.1°F1.2°C 89% Calm Calm 1.2 mph1.9 kmh 29.58 in1001.7 mb - 0.00 in0.0 mm 0.14 in3.6 mm
09:20 PM 36.9°F2.7°C 34.0°F1.1°C 89% Calm Calm -- 29.58 in1001.7 mb - 0.00 in0.0 mm 0.14 in3.6 mm
09:30 PM 36.8°F2.7°C 33.9°F1.1°C 89% Calm Calm 2.3 mph3.7 kmh 29.58 in1001.7 mb - 0.00 in0.0 mm 0.14 in3.6 mm
09:40 PM 36.7°F2.6°C 33.8°F1.0°C 89% 1.2 mph WSW1.9 kmh WSW 6.9 mph11.1 kmh 29.58 in1001.7 mb - 0.00 in0.0 mm 0.14 in3.6 mm
09:50 PM 36.8°F2.7°C 33.9°F1.1°C 89% 2.3 mph SW3.7 kmh SW 6.9 mph11.1 kmh 29.59 in1002.0 mb - 0.00 in0.0 mm 0.14 in3.6 mm
10:00 PM 36.9°F2.7°C 34.0°F1.1°C 89% Calm Calm 2.3 mph3.7 kmh 29.60 in1002.4 mb - 0.00 in0.0 mm 0.14 in3.6 mm
10:10 PM 36.9°F2.7°C 34.0°F1.1°C 89% 1.2 mph WSW1.9 kmh WSW 5.8 mph9.3 kmh 29.59 in1002.0 mb - 0.00 in0.0 mm 0.14 in3.6 mm
10:20 PM 37.0°F2.8°C 34.1°F1.2°C 89% 2.3 mph SW3.7 kmh SW 3.5 mph5.6 kmh 29.60 in1002.4 mb - 0.00 in0.0 mm 0.14 in3.6 mm
10:30 PM 37.0°F2.8°C 34.1°F1.2°C 89% 2.3 mph WSW3.7 kmh WSW 5.8 mph9.3 kmh 29.60 in1002.4 mb - 0.00 in0.0 mm 0.14 in3.6 mm
10:40 PM 37.0°F2.8°C 33.8°F1.0°C 88% Calm Calm -- 29.60 in1002.4 mb - 0.00 in0.0 mm 0.14 in3.6 mm
10:50 PM 37.0°F2.8°C 33.8°F1.0°C 88% Calm Calm -- 29.60 in1002.4 mb - 0.00 in0.0 mm 0.14 in3.6 mm
11:00 PM 36.9°F2.7°C 33.7°F0.9°C 88% 1.2 mph SW1.9 kmh SW 8.1 mph13.0 kmh 29.60 in1002.4 mb - 0.00 in0.0 mm 0.14 in3.6 mm
11:10 PM 36.6°F2.6°C 33.4°F0.8°C 88% Calm Calm -- 29.60 in1002.4 mb - 0.00 in0.0 mm 0.14 in3.6 mm
11:20 PM 36.4°F2.4°C 33.5°F0.8°C 89% 1.2 mph SW1.9 kmh SW 5.8 mph9.3 kmh 29.60 in1002.4 mb - 0.00 in0.0 mm 0.14 in3.6 mm
11:30 PM 36.2°F2.3°C 33.3°F0.7°C 89% 2.3 mph W3.7 kmh W 4.6 mph7.4 kmh 29.61 in1002.7 mb - 0.00 in0.0 mm 0.14 in3.6 mm
11:40 PM 36.2°F2.3°C 33.3°F0.7°C 89% Calm Calm -- 29.61 in1002.7 mb - 0.00 in0.0 mm 0.14 in3.6 mm
11:50 PM 36.1°F2.3°C 32.9°F0.5°C 88% Calm Calm 1.2 mph1.9 kmh 29.61 in1002.7 mb - 0.00 in0.0 mm 0.14 in3.6 mm